Time;durP1;ratioP1;P1;durP2;ratioP2;P2;SDS_P1;SDS_P2;PMS_P1;PMS_P2;Temp;Humidity;BMP_temperature;BMP_pressure;BME280_temperature;BME280_humidity;BME280_pressure;Samples;Min_cycle;Max_cycle;Signal;HPM_P1;HPM_P2
2023/04/09 00:00:00;;;;;;;18.83;17.83;;;;;;;;;;5055007;28;20110;-59
2023/04/09 00:02:26;;;;;;;19.90;18.70;;;;;;;;;;5055652;28;20486;-60
2023/04/09 00:04:51;;;;;;;18.77;17.77;;;;;;;;;;5055687;28;20511;-60
2023/04/09 00:07:16;;;;;;;19.45;18.35;;;;;;;;;;5054963;28;20221;-59
2023/04/09 00:09:42;;;;;;;20.67;19.27;;;;;;;;;;5054047;28;20025;-60
2023/04/09 00:12:07;;;;;;;20.88;19.45;;;;;;;;;;5053122;28;20048;-60
2023/04/09 00:14:32;;;;;;;19.67;18.58;;;;;;;;;;5048904;28;20022;-60
2023/04/09 00:16:58;;;;;;;20.02;18.83;;;;;;;;;;5046382;28;20025;-60
2023/04/09 00:19:23;;;;;;;19.70;18.60;;;;;;;;;;5054273;28;20029;-60
2023/04/09 00:21:48;;;;;;;21.17;19.77;;;;;;;;;;5054966;28;20017;-60
2023/04/09 00:24:14;;;;;;;19.65;18.55;;;;;;;;;;5056142;28;20017;-60
2023/04/09 00:26:40;;;;;;;19.60;18.52;;;;;;;;;;5053907;28;20013;-60
2023/04/09 00:29:05;;;;;;;18.27;17.27;;;;;;;;;;5054432;28;20102;-60
2023/04/09 00:31:32;;;;;;;18.55;17.55;;;;;;;;;;5052537;28;20036;-60
2023/04/09 00:33:57;;;;;;;18.95;17.85;;;;;;;;;;5049333;28;20047;-61
2023/04/09 00:36:23;;;;;;;18.95;17.85;;;;;;;;;;5054795;28;20123;-60
2023/04/09 00:38:49;;;;;;;21.20;19.70;;;;;;;;;;5056489;28;20058;-59
2023/04/09 00:41:16;;;;;;;18.73;17.70;;;;;;;;;;5049286;28;20037;-59
2023/04/09 00:43:41;;;;;;;19.55;18.30;;;;;;;;;;5049606;28;20013;-60
2023/04/09 00:46:06;;;;;;;18.70;17.63;;;;;;;;;;5054821;28;20021;-60
2023/04/09 00:48:32;;;;;;;19.02;17.92;;;;;;;;;;5053054;28;20471;-59
2023/04/09 00:50:57;;;;;;;18.58;17.52;;;;;;;;;;5054907;28;20052;-60
2023/04/09 00:53:22;;;;;;;18.75;17.70;;;;;;;;;;5054319;28;20024;-60
2023/04/09 00:55:48;;;;;;;19.50;18.30;;;;;;;;;;5054794;28;20451;-60
2023/04/09 00:58:13;;;;;;;19.73;18.52;;;;;;;;;;5053579;28;20037;-60
2023/04/09 01:00:39;;;;;;;18.33;17.33;;;;;;;;;;5052050;28;20025;-60
2023/04/09 01:03:05;;;;;;;20.00;18.75;;;;;;;;;;5050340;28;20044;-60
2023/04/09 01:05:37;;;;;;;19.30;18.15;;;;;;;;;;5053124;28;20366;-60
2023/04/09 01:08:30;;;;;;;18.80;17.80;;;;;;;;;;5053821;28;20017;-61
2023/04/09 01:11:19;;;;;;;20.20;18.90;;;;;;;;;;5043399;28;20017;-59
2023/04/09 01:13:48;;;;;;;20.85;19.40;;;;;;;;;;5059005;28;20036;-60
2023/04/09 01:16:15;;;;;;;19.50;18.40;;;;;;;;;;5062395;28;20029;-60
2023/04/09 01:18:49;;;;;;;21.83;20.25;;;;;;;;;;5051590;28;20017;-60
2023/04/09 01:21:14;;;;;;;;;;;;;;;;;;5053724;28;20028;-60
2023/04/09 01:23:55;;;;;;;22.67;20.97;;;;;;;;;;5052684;28;19920;-60
2023/04/09 01:26:24;;;;;;;20.15;18.95;;;;;;;;;;5053591;28;20238;-60
2023/04/09 01:28:52;;;;;;;20.90;19.50;;;;;;;;;;5053350;28;20017;-60
2023/04/09 01:31:18;;;;;;;20.10;18.88;;;;;;;;;;5052843;28;20056;-61
2023/04/09 01:33:44;;;;;;;20.55;19.25;;;;;;;;;;5052223;28;20017;-61
2023/04/09 01:36:10;;;;;;;19.60;18.50;;;;;;;;;;5053437;28;20040;-60
2023/04/09 01:38:36;;;;;;;19.10;18.00;;;;;;;;;;5045757;28;20440;-60
2023/04/09 01:41:02;;;;;;;18.92;17.92;;;;;;;;;;5053385;28;20025;-60
2023/04/09 01:43:29;;;;;;;20.15;18.95;;;;;;;;;;5053151;28;20021;-60
2023/04/09 01:45:54;;;;;;;20.95;19.73;;;;;;;;;;5053046;28;20079;-61
2023/04/09 01:48:20;;;;;;;21.17;19.98;;;;;;;;;;5052897;28;20384;-60
2023/04/09 01:50:46;;;;;;;21.63;20.20;;;;;;;;;;5052518;28;20029;-61
2023/04/09 01:53:12;;;;;;;19.60;18.60;;;;;;;;;;5052724;28;20025;-60
2023/04/09 01:55:37;;;;;;;19.17;18.08;;;;;;;;;;5044037;28;20115;-60
2023/04/09 01:58:02;;;;;;;19.45;18.35;;;;;;;;;;5052339;28;20087;-60
2023/04/09 02:00:30;;;;;;;19.70;18.60;;;;;;;;;;5052957;28;20107;-60
2023/04/09 02:03:20;;;;;;;21.00;19.60;;;;;;;;;;5053024;28;20017;-60
2023/04/09 02:05:55;;;;;;;20.27;19.08;;;;;;;;;;5043203;28;20021;-59
2023/04/09 02:08:20;;;;;;;;;;;;;;;;;;5052132;28;20025;-59
2023/04/09 02:10:52;;;;;;;20.17;18.98;;;;;;;;;;5044390;28;19908;-59
2023/04/09 02:13:17;;;;;;;18.50;17.60;;;;;;;;;;5052511;28;20048;-60
2023/04/09 02:15:44;;;;;;;20.55;19.35;;;;;;;;;;5058515;28;20017;-60
2023/04/09 02:18:26;;;;;;;20.80;19.60;;;;;;;;;;5052190;28;20392;-60
2023/04/09 02:20:51;;;;;;;20.80;19.50;;;;;;;;;;5051805;28;20017;-61
2023/04/09 02:23:16;;;;;;;20.48;19.38;;;;;;;;;;5052339;28;20108;-60
2023/04/09 02:25:42;;;;;;;21.30;20.00;;;;;;;;;;5050716;28;20040;-60
2023/04/09 02:28:08;;;;;;;20.88;19.67;;;;;;;;;;5050223;28;20103;-61
2023/04/09 02:30:33;;;;;;;20.92;19.63;;;;;;;;;;5050362;28;20033;-61
2023/04/09 02:32:58;;;;;;;20.80;19.50;;;;;;;;;;5051103;28;20027;-60
2023/04/09 02:35:24;;;;;;;20.27;19.02;;;;;;;;;;5050523;28;20063;-60
2023/04/09 02:37:49;;;;;;;20.85;19.52;;;;;;;;;;5056523;28;20044;-60
2023/04/09 02:40:14;;;;;;;19.98;18.88;;;;;;;;;;5053004;28;20032;-60
2023/04/09 02:42:40;;;;;;;20.42;19.23;;;;;;;;;;5057013;28;20017;-61
2023/04/09 02:45:05;;;;;;;19.33;18.33;;;;;;;;;;5051843;28;20066;-60
2023/04/09 02:47:31;;;;;;;19.10;18.10;;;;;;;;;;5045513;28;20045;-61
2023/04/09 02:49:56;;;;;;;20.00;18.80;;;;;;;;;;5044722;28;20102;-59
2023/04/09 02:52:23;;;;;;;19.33;18.33;;;;;;;;;;5050973;28;20043;-60
2023/04/09 02:54:49;;;;;;;20.73;19.40;;;;;;;;;;5052209;28;20024;-60
2023/04/09 02:57:14;;;;;;;20.50;19.30;;;;;;;;;;5050667;28;20035;-60
2023/04/09 02:59:39;;;;;;;20.33;19.02;;;;;;;;;;5050515;28;20120;-60
2023/04/09 03:02:05;;;;;;;19.80;18.63;;;;;;;;;;5051730;28;20105;-60
2023/04/09 03:04:30;;;;;;;19.42;18.33;;;;;;;;;;5051677;28;20099;-60
2023/04/09 03:06:55;;;;;;;20.17;18.98;;;;;;;;;;5048935;28;20094;-60
2023/04/09 03:09:21;;;;;;;19.05;18.05;;;;;;;;;;5045084;28;20431;-59
2023/04/09 03:11:46;;;;;;;20.15;18.95;;;;;;;;;;5052479;28;20101;-59
2023/04/09 03:14:11;;;;;;;18.90;18.00;;;;;;;;;;5051447;28;20108;-61
2023/04/09 03:16:37;;;;;;;19.75;18.63;;;;;;;;;;5050735;28;20021;-59
2023/04/09 03:19:02;;;;;;;19.55;18.38;;;;;;;;;;5052021;28;20074;-60
2023/04/09 03:21:28;;;;;;;19.95;18.75;;;;;;;;;;5045407;28;20025;-59
2023/04/09 03:23:53;;;;;;;20.38;19.08;;;;;;;;;;5041796;28;20132;-59
2023/04/09 03:26:18;;;;;;;18.75;17.75;;;;;;;;;;5048805;28;20522;-59
2023/04/09 03:28:43;;;;;;;20.75;19.35;;;;;;;;;;5055714;28;20580;-61
2023/04/09 03:31:09;;;;;;;19.75;18.55;;;;;;;;;;5052073;28;20032;-66
2023/04/09 03:33:34;;;;;;;20.02;18.77;;;;;;;;;;5049382;28;20121;-60
2023/04/09 03:36:00;;;;;;;20.05;18.75;;;;;;;;;;5053829;28;20547;-60
2023/04/09 03:38:25;;;;;;;18.55;17.55;;;;;;;;;;5053365;28;20025;-60
2023/04/09 03:40:50;;;;;;;21.05;19.55;;;;;;;;;;5051903;28;20036;-60
2023/04/09 03:43:15;;;;;;;19.70;18.52;;;;;;;;;;5042325;28;20025;-60
2023/04/09 03:45:41;;;;;;;21.13;19.65;;;;;;;;;;5044574;28;20570;-60
2023/04/09 03:48:06;;;;;;;19.92;18.73;;;;;;;;;;5050870;28;20040;-60
2023/04/09 03:50:36;;;;;;;19.80;18.63;;;;;;;;;;5049115;28;20068;-60
2023/04/09 03:53:01;;;;;;;19.95;18.75;;;;;;;;;;5043788;28;20059;-60
2023/04/09 03:55:27;;;;;;;19.65;18.45;;;;;;;;;;5053965;28;20056;-60
2023/04/09 03:57:52;;;;;;;20.63;19.20;;;;;;;;;;5050451;28;20526;-60
2023/04/09 04:00:17;;;;;;;19.33;18.13;;;;;;;;;;5046088;28;20025;-60
2023/04/09 04:02:43;;;;;;;20.67;19.27;;;;;;;;;;5050579;28;20504;-59
2023/04/09 04:05:08;;;;;;;19.17;18.02;;;;;;;;;;5043230;28;20442;-60
2023/04/09 04:07:33;;;;;;;19.17;18.05;;;;;;;;;;5050866;28;20017;-59
2023/04/09 04:09:59;;;;;;;19.17;18.08;;;;;;;;;;5053571;28;20419;-58
2023/04/09 04:12:24;;;;;;;19.27;18.13;;;;;;;;;;5053533;28;20083;-59
2023/04/09 04:14:49;;;;;;;21.70;20.08;;;;;;;;;;5050117;28;20051;-59
2023/04/09 04:17:16;;;;;;;18.98;17.88;;;;;;;;;;5041980;28;20021;-60
2023/04/09 04:19:41;;;;;;;19.42;18.23;;;;;;;;;;5046765;28;20052;-58
2023/04/09 04:22:07;;;;;;;18.98;17.88;;;;;;;;;;5044888;28;20433;-59
2023/04/09 04:24:32;;;;;;;20.33;18.90;;;;;;;;;;5047252;28;20028;-58
2023/04/09 04:26:57;;;;;;;20.08;18.67;;;;;;;;;;5050807;28;20073;-59
2023/04/09 04:29:22;;;;;;;18.38;17.30;;;;;;;;;;5052952;28;20032;-59
2023/04/09 04:31:48;;;;;;;20.10;18.73;;;;;;;;;;5054755;28;20029;-59
2023/04/09 04:34:13;;;;;;;19.70;18.40;;;;;;;;;;5047815;28;20053;-59
2023/04/09 04:36:40;;;;;;;19.02;17.95;;;;;;;;;;5054176;28;20017;-59
2023/04/09 04:39:05;;;;;;;18.85;17.75;;;;;;;;;;5052947;28;20024;-59
2023/04/09 04:41:30;;;;;;;18.92;17.80;;;;;;;;;;5053324;28;20484;-59
2023/04/09 04:43:56;;;;;;;19.73;18.42;;;;;;;;;;5053946;28;20020;-60
2023/04/09 04:46:21;;;;;;;20.08;18.75;;;;;;;;;;5049977;28;20036;-60
2023/04/09 04:48:46;;;;;;;19.52;18.30;;;;;;;;;;5046457;28;20025;-60
2023/04/09 04:51:12;;;;;;;18.80;17.70;;;;;;;;;;5051272;28;20025;-61
2023/04/09 04:53:37;;;;;;;18.58;17.52;;;;;;;;;;5042837;28;20017;-61
2023/04/09 04:56:02;;;;;;;18.33;17.27;;;;;;;;;;5039424;28;20060;-59
2023/04/09 04:58:29;;;;;;;18.30;17.30;;;;;;;;;;5039367;28;20048;-61
2023/04/09 05:00:54;;;;;;;18.33;17.33;;;;;;;;;;5053571;28;20020;-61
2023/04/09 05:03:19;;;;;;;18.27;17.25;;;;;;;;;;5051477;28;20067;-61
2023/04/09 05:05:45;;;;;;;19.65;18.35;;;;;;;;;;5051066;28;20025;-61
2023/04/09 05:08:10;;;;;;;18.05;17.05;;;;;;;;;;5048844;28;20017;-61
2023/04/09 05:10:36;;;;;;;18.83;17.73;;;;;;;;;;5054053;28;20563;-60
2023/04/09 05:13:01;;;;;;;19.00;17.80;;;;;;;;;;5038632;28;20370;-60
2023/04/09 05:15:26;;;;;;;19.45;18.15;;;;;;;;;;5049426;28;20053;-60
2023/04/09 05:17:52;;;;;;;19.30;18.05;;;;;;;;;;5052599;28;20107;-60
2023/04/09 05:20:17;;;;;;;18.83;17.73;;;;;;;;;;5052746;28;20067;-60
2023/04/09 05:22:42;;;;;;;19.02;17.83;;;;;;;;;;5050170;28;20009;-60
2023/04/09 05:25:09;;;;;;;18.27;17.27;;;;;;;;;;5043786;28;20075;-60
2023/04/09 05:27:34;;;;;;;18.45;17.35;;;;;;;;;;5054192;28;20131;-60
2023/04/09 05:30:00;;;;;;;18.35;17.30;;;;;;;;;;5050688;28;20056;-60
2023/04/09 05:32:25;;;;;;;19.00;17.80;;;;;;;;;;5052229;28;20040;-60
2023/04/09 05:34:50;;;;;;;19.77;18.48;;;;;;;;;;5050664;28;20055;-60
2023/04/09 05:37:16;;;;;;;18.95;17.77;;;;;;;;;;5046576;28;20024;-60
2023/04/09 05:39:41;;;;;;;20.38;18.88;;;;;;;;;;5054319;28;20028;-60
2023/04/09 05:42:06;;;;;;;18.80;17.60;;;;;;;;;;5054122;28;20113;-60
2023/04/09 05:44:32;;;;;;;18.45;17.40;;;;;;;;;;5044920;28;20013;-61
2023/04/09 05:46:57;;;;;;;18.05;17.02;;;;;;;;;;5051823;28;20028;-61
2023/04/09 05:49:23;;;;;;;17.50;16.60;;;;;;;;;;5051734;28;20073;-60
2023/04/09 05:51:48;;;;;;;18.85;17.65;;;;;;;;;;5048761;28;20029;-60
2023/04/09 05:54:14;;;;;;;18.17;17.08;;;;;;;;;;5051375;28;20024;-60
2023/04/09 05:56:39;;;;;;;17.58;16.58;;;;;;;;;;5040477;28;20052;-60
2023/04/09 05:59:04;;;;;;;17.17;16.20;;;;;;;;;;5052036;28;20455;-60
2023/04/09 06:01:30;;;;;;;17.05;16.15;;;;;;;;;;5046565;28;20016;-60
2023/04/09 06:03:55;;;;;;;18.13;16.98;;;;;;;;;;5047937;28;20326;-60
2023/04/09 06:06:20;;;;;;;17.38;16.38;;;;;;;;;;5050698;28;20499;-61
2023/04/09 06:08:46;;;;;;;18.30;17.15;;;;;;;;;;5052538;28;20017;-61
2023/04/09 06:11:11;;;;;;;17.42;16.42;;;;;;;;;;5042865;28;20037;-61
2023/04/09 06:13:37;;;;;;;17.55;16.55;;;;;;;;;;5047202;28;20396;-61
2023/04/09 06:16:03;;;;;;;17.33;16.42;;;;;;;;;;5053923;28;20400;-61
2023/04/09 06:18:28;;;;;;;17.00;16.10;;;;;;;;;;5050976;28;20103;-61
2023/04/09 06:21:00;;;;;;;19.08;17.83;;;;;;;;;;5047961;28;20444;-61
2023/04/09 06:23:25;;;;;;;16.80;15.95;;;;;;;;;;5049118;28;20020;-61
2023/04/09 06:25:51;;;;;;;18.55;17.42;;;;;;;;;;5051647;28;20444;-59
2023/04/09 06:28:16;;;;;;;18.35;17.25;;;;;;;;;;5039925;28;20028;-60
2023/04/09 06:30:41;;;;;;;19.75;18.38;;;;;;;;;;5052650;28;20047;-60
2023/04/09 06:33:07;;;;;;;16.98;16.08;;;;;;;;;;5050101;28;20461;-60
2023/04/09 06:35:32;;;;;;;18.83;17.63;;;;;;;;;;5047428;28;20028;-61
2023/04/09 06:37:57;;;;;;;17.80;16.70;;;;;;;;;;5047668;28;20143;-60
2023/04/09 06:40:23;;;;;;;17.85;16.75;;;;;;;;;;5047397;28;20139;-60
2023/04/09 06:42:48;;;;;;;18.45;17.25;;;;;;;;;;5051534;28;20104;-61
2023/04/09 06:45:13;;;;;;;17.00;16.10;;;;;;;;;;5037238;28;20508;-61
2023/04/09 06:47:38;;;;;;;18.35;17.17;;;;;;;;;;5049972;28;20071;-61
2023/04/09 06:50:04;;;;;;;16.63;15.73;;;;;;;;;;5051636;28;20036;-61
2023/04/09 06:52:29;;;;;;;17.17;16.23;;;;;;;;;;5051923;28;20021;-61
2023/04/09 06:54:55;;;;;;;18.02;16.92;;;;;;;;;;5051779;28;20029;-60
2023/04/09 06:57:20;;;;;;;16.52;15.63;;;;;;;;;;5050832;28;20021;-60
2023/04/09 06:59:45;;;;;;;18.20;17.08;;;;;;;;;;5051529;28;20013;-61
2023/04/09 07:02:11;;;;;;;16.90;16.00;;;;;;;;;;5051005;28;20021;-61
2023/04/09 07:04:36;;;;;;;19.27;17.98;;;;;;;;;;5044150;28;20029;-60
2023/04/09 07:07:01;;;;;;;17.33;16.40;;;;;;;;;;5050830;28;20021;-60
2023/04/09 07:09:27;;;;;;;17.00;16.10;;;;;;;;;;5049888;28;20048;-60
2023/04/09 07:11:52;;;;;;;18.08;16.98;;;;;;;;;;5044199;28;20059;-60
2023/04/09 07:14:17;;;;;;;17.27;16.38;;;;;;;;;;5050636;28;20056;-60
2023/04/09 07:16:45;;;;;;;18.48;17.38;;;;;;;;;;5037890;28;20108;-60
2023/04/09 07:19:10;;;;;;;17.83;16.83;;;;;;;;;;5051382;28;20029;-60
2023/04/09 07:21:36;;;;;;;17.52;16.52;;;;;;;;;;5051194;28;20017;-60
2023/04/09 07:24:01;;;;;;;16.98;16.08;;;;;;;;;;5045336;28;20013;-61
2023/04/09 07:26:28;;;;;;;17.40;16.40;;;;;;;;;;5043080;28;20021;-60
2023/04/09 07:28:53;;;;;;;18.38;17.27;;;;;;;;;;5042502;28;20419;-60
2023/04/09 07:31:18;;;;;;;17.38;16.40;;;;;;;;;;5038396;28;20107;-63
2023/04/09 07:33:44;;;;;;;18.13;17.02;;;;;;;;;;5049021;28;20028;-61
2023/04/09 07:36:09;;;;;;;18.42;17.30;;;;;;;;;;5051179;28;20017;-61
2023/04/09 07:38:34;;;;;;;17.60;16.60;;;;;;;;;;5043522;28;20143;-61
2023/04/09 07:41:00;;;;;;;18.63;17.42;;;;;;;;;;5044129;28;20029;-62
2023/04/09 07:43:25;;;;;;;17.75;16.75;;;;;;;;;;5039626;28;20025;-61
2023/04/09 07:45:51;;;;;;;19.02;17.83;;;;;;;;;;5045567;28;20078;-61
2023/04/09 07:48:16;;;;;;;18.25;17.15;;;;;;;;;;5044241;28;20067;-60
2023/04/09 07:50:43;;;;;;;19.13;17.92;;;;;;;;;;5048242;28;20615;-60
2023/04/09 07:53:09;;;;;;;17.70;16.70;;;;;;;;;;5045353;28;20436;-62
2023/04/09 07:55:34;;;;;;;18.92;17.67;;;;;;;;;;5043003;28;20040;-62
2023/04/09 07:58:00;;;;;;;18.60;17.45;;;;;;;;;;5047684;28;20053;-61
2023/04/09 08:00:25;;;;;;;17.73;16.73;;;;;;;;;;5049794;28;20025;-61
2023/04/09 08:02:51;;;;;;;18.77;17.60;;;;;;;;;;5049126;28;20016;-62
2023/04/09 08:05:16;;;;;;;17.85;16.83;;;;;;;;;;5038408;28;20104;-62
2023/04/09 08:07:42;;;;;;;18.13;17.02;;;;;;;;;;5046188;28;20100;-61
2023/04/09 08:10:07;;;;;;;16.75;15.85;;;;;;;;;;5049959;28;20036;-60
2023/04/09 08:12:33;;;;;;;17.27;16.27;;;;;;;;;;5039078;28;20041;-61
2023/04/09 08:14:58;;;;;;;16.67;15.77;;;;;;;;;;5050597;28;20063;-61
2023/04/09 08:17:23;;;;;;;17.30;16.30;;;;;;;;;;5053364;28;20077;-61
2023/04/09 08:19:48;;;;;;;17.77;16.73;;;;;;;;;;5052078;28;20595;-61
2023/04/09 08:22:14;;;;;;;17.13;16.17;;;;;;;;;;5049957;28;20021;-62
2023/04/09 08:24:42;;;;;;;19.30;18.00;;;;;;;;;;5052900;28;20028;-62
2023/04/09 08:27:07;;;;;;;17.95;16.85;;;;;;;;;;5050876;28;20070;-66
2023/04/09 08:29:33;;;;;;;17.60;16.60;;;;;;;;;;5052649;28;20108;-62
2023/04/09 08:31:59;;;;;;;17.67;16.67;;;;;;;;;;5043472;28;20025;-62
2023/04/09 08:34:24;;;;;;;17.33;16.33;;;;;;;;;;5050887;28;20107;-62
2023/04/09 08:36:49;;;;;;;17.23;16.23;;;;;;;;;;5052795;28;20159;-62
2023/04/09 08:39:18;;;;;;;17.17;16.23;;;;;;;;;;5047779;28;20103;-61
2023/04/09 08:41:44;;;;;;;16.63;15.73;;;;;;;;;;5048069;28;20025;-62
2023/04/09 08:44:10;;;;;;;17.05;16.10;;;;;;;;;;5054065;28;20051;-60
2023/04/09 08:46:35;;;;;;;16.80;15.90;;;;;;;;;;5055388;28;20009;-62
2023/04/09 08:49:01;;;;;;;16.95;16.05;;;;;;;;;;5052932;28;20031;-61
2023/04/09 08:51:27;;;;;;;17.02;16.13;;;;;;;;;;5054513;28;20029;-62
2023/04/09 08:53:56;;;;;;;18.52;17.38;;;;;;;;;;5053965;28;20021;-61
2023/04/09 08:56:22;;;;;;;18.67;17.48;;;;;;;;;;5039404;28;20032;-62
2023/04/09 08:58:48;;;;;;;19.67;18.38;;;;;;;;;;5050311;28;20049;-62
2023/04/09 09:01:23;;;;;;;18.67;17.48;;;;;;;;;;5051935;28;20152;-61
2023/04/09 09:03:54;;;;;;;18.35;17.17;;;;;;;;;;5053181;28;20455;-62
2023/04/09 09:06:20;;;;;;;17.67;16.67;;;;;;;;;;5052081;28;20100;-62
2023/04/09 09:08:58;;;;;;;18.85;17.65;;;;;;;;;;5051292;28;20032;-62
2023/04/09 09:11:26;;;;;;;17.85;16.85;;;;;;;;;;5047010;28;20029;-61
2023/04/09 09:13:59;;;;;;;19.33;18.02;;;;;;;;;;5039697;28;20033;-63
2023/04/09 09:16:24;;;;;;;17.40;16.40;;;;;;;;;;5055048;28;20128;-61
2023/04/09 09:18:50;;;;;;;18.80;17.60;;;;;;;;;;5049598;28;20029;-62
2023/04/09 09:21:16;;;;;;;17.80;16.77;;;;;;;;;;5055777;28;20037;-62
2023/04/09 09:23:42;;;;;;;18.00;16.90;;;;;;;;;;5062225;28;20032;-62
2023/04/09 09:26:15;;;;;;;18.40;17.25;;;;;;;;;;5049025;28;20041;-61
2023/04/09 09:28:41;;;;;;;17.95;16.85;;;;;;;;;;5053644;28;20451;-61
2023/04/09 09:31:09;;;;;;;18.00;16.90;;;;;;;;;;5047721;28;20021;-60
2023/04/09 09:33:35;;;;;;;19.13;17.83;;;;;;;;;;5052196;28;20034;-64
2023/04/09 09:36:02;;;;;;;17.70;16.60;;;;;;;;;;5050899;28;20023;-61
2023/04/09 09:38:28;;;;;;;17.70;16.60;;;;;;;;;;5049563;28;20044;-63
2023/04/09 09:40:53;;;;;;;18.13;17.02;;;;;;;;;;5057063;28;20021;-61
2023/04/09 09:43:19;;;;;;;17.50;16.50;;;;;;;;;;5043113;28;20024;-62
2023/04/09 09:45:45;;;;;;;18.17;17.08;;;;;;;;;;5050801;28;20499;-63
2023/04/09 09:48:13;;;;;;;17.30;16.30;;;;;;;;;;5050498;28;20053;-63
2023/04/09 09:50:42;;;;;;;16.67;15.75;;;;;;;;;;5044381;28;20643;-63
2023/04/09 09:53:11;;;;;;;17.42;16.45;;;;;;;;;;5047761;28;20056;-62
2023/04/09 09:55:37;;;;;;;18.13;17.02;;;;;;;;;;5040152;28;20021;-61
2023/04/09 09:58:10;;;;;;;19.55;18.25;;;;;;;;;;5049156;28;20045;-64
2023/04/09 10:00:36;;;;;;;18.02;16.92;;;;;;;;;;5052770;28;20033;-64
2023/04/09 10:03:10;;;;;;;18.00;16.90;;;;;;;;;;5061023;28;20004;-63
2023/04/09 10:05:38;;;;;;;17.50;16.45;;;;;;;;;;5050114;28;20493;-63
2023/04/09 10:08:03;;;;;;;16.23;15.35;;;;;;;;;;5054634;28;20021;-61
2023/04/09 10:10:29;;;;;;;17.75;16.65;;;;;;;;;;5060793;28;20036;-63
2023/04/09 10:12:55;;;;;;;17.80;16.70;;;;;;;;;;5038733;28;20025;-61
2023/04/09 10:15:21;;;;;;;17.10;16.10;;;;;;;;;;5042880;28;20422;-66
2023/04/09 10:17:46;;;;;;;16.63;15.73;;;;;;;;;;5041531;28;20024;-64
2023/04/09 10:20:18;;;;;;;16.95;16.05;;;;;;;;;;5049613;28;20109;-64
2023/04/09 10:22:48;;;;;;;17.33;16.33;;;;;;;;;;5050738;28;20052;-70
2023/04/09 10:25:14;;;;;;;16.98;15.98;;;;;;;;;;5032269;28;20014;-74
2023/04/09 10:27:41;;;;;;;16.88;15.90;;;;;;;;;;5042953;28;20491;-67
2023/04/09 10:30:09;;;;;;;16.38;15.48;;;;;;;;;;5050164;28;20484;-64
2023/04/09 10:32:35;;;;;;;18.30;17.20;;;;;;;;;;5048482;28;20040;-65
2023/04/09 10:35:03;;;;;;;17.35;16.35;;;;;;;;;;5046972;28;20030;-65
2023/04/09 10:37:28;;;;;;;17.88;16.83;;;;;;;;;;5048693;28;20029;-64
2023/04/09 10:39:55;;;;;;;19.83;18.58;;;;;;;;;;5043531;28;20033;-64
2023/04/09 10:42:31;;;;;;;19.08;17.88;;;;;;;;;;5050702;28;20013;-74
2023/04/09 10:45:27;;;;;;;18.48;17.38;;;;;;;;;;5051347;28;20041;-64
2023/04/09 10:47:52;;;;;;;19.33;18.13;;;;;;;;;;5029034;28;20124;-65
2023/04/09 10:50:23;;;;;;;18.17;17.10;;;;;;;;;;5052284;28;20524;-63
2023/04/09 10:52:56;;;;;;;17.85;16.83;;;;;;;;;;5050158;28;20048;-64
2023/04/09 10:55:37;;;;;;;18.77;17.60;;;;;;;;;;5049380;28;20032;-64
2023/04/09 10:58:03;;;;;;;17.27;16.27;;;;;;;;;;5051158;28;20362;-69
2023/04/09 11:00:28;;;;;;;18.33;17.23;;;;;;;;;;5051164;28;20025;-68
2023/04/09 11:03:09;;;;;;;19.52;18.25;;;;;;;;;;5046275;28;20024;-68
2023/04/09 11:05:38;;;;;;;17.55;16.55;;;;;;;;;;5043346;28;20055;-66
2023/04/09 11:08:11;;;;;;;18.42;17.33;;;;;;;;;;5045531;28;20083;-66
2023/04/09 11:10:43;;;;;;;18.95;17.75;;;;;;;;;;5046079;28;20392;-69
2023/04/09 11:13:13;;;;;;;18.67;17.55;;;;;;;;;;5045502;28;20029;-65
2023/04/09 11:15:38;;;;;;;18.40;17.30;;;;;;;;;;5055306;28;20017;-67
2023/04/09 11:18:05;;;;;;;18.58;17.42;;;;;;;;;;5049564;28;20043;-63
2023/04/09 11:20:32;;;;;;;18.00;16.92;;;;;;;;;;5041687;28;20040;-64
2023/04/09 11:22:58;;;;;;;17.50;16.50;;;;;;;;;;5045550;28;20021;-64
2023/04/09 11:25:24;;;;;;;18.42;17.33;;;;;;;;;;5043383;28;20172;-62
2023/04/09 11:27:50;;;;;;;17.52;16.52;;;;;;;;;;5046656;28;20017;-62
2023/04/09 11:30:15;;;;;;;17.70;16.70;;;;;;;;;;5043247;28;20032;-61
2023/04/09 11:32:41;;;;;;;18.65;17.45;;;;;;;;;;5049081;28;20028;-64
2023/04/09 11:35:16;;;;;;;18.10;17.00;;;;;;;;;;5048082;28;20049;-75
2023/04/09 11:37:42;;;;;;;18.10;17.00;;;;;;;;;;5043269;28;20086;-64
2023/04/09 11:40:15;;;;;;;17.85;16.80;;;;;;;;;;5046212;28;20025;-65
2023/04/09 11:42:41;;;;;;;18.20;17.10;;;;;;;;;;5048791;28;20035;-63
2023/04/09 11:45:07;;;;;;;17.65;16.65;;;;;;;;;;5046549;28;20021;-63
2023/04/09 11:47:32;;;;;;;17.50;16.50;;;;;;;;;;5044411;28;20061;-62
2023/04/09 11:49:58;;;;;;;18.20;17.10;;;;;;;;;;5052850;28;20063;-64
2023/04/09 11:52:23;;;;;;;18.20;17.10;;;;;;;;;;5043161;28;20547;-61
2023/04/09 11:54:49;;;;;;;18.88;17.67;;;;;;;;;;5047943;28;20024;-62
2023/04/09 11:57:14;;;;;;;17.40;16.40;;;;;;;;;;5052023;28;20033;-62
2023/04/09 11:59:40;;;;;;;18.60;17.40;;;;;;;;;;5053157;28;20378;-62
2023/04/09 12:02:06;;;;;;;21.13;19.52;;;;;;;;;;5046575;28;20017;-62
2023/04/09 12:04:31;;;;;;;17.25;16.35;;;;;;;;;;5049546;28;20029;-62
2023/04/09 12:06:59;;;;;;;18.75;17.55;;;;;;;;;;5041386;28;20033;-62
2023/04/09 12:09:25;;;;;;;18.45;17.25;;;;;;;;;;5047132;28;20107;-61
2023/04/09 12:11:50;;;;;;;18.98;17.73;;;;;;;;;;5061894;28;20174;-60
2023/04/09 12:14:17;;;;;;;17.25;16.35;;;;;;;;;;5058728;28;20032;-60
2023/04/09 12:16:43;;;;;;;18.20;17.10;;;;;;;;;;5042777;28;20553;-61
2023/04/09 12:19:12;;;;;;;17.73;16.70;;;;;;;;;;5038735;28;20079;-61
2023/04/09 12:21:47;;;;;;;17.05;16.15;;;;;;;;;;5051860;28;20017;-61
2023/04/09 12:24:13;;;;;;;16.02;15.23;;;;;;;;;;5051308;28;20554;-63
2023/04/09 12:26:38;;;;;;;18.52;17.33;;;;;;;;;;5054548;28;20029;-62
2023/04/09 12:29:03;;;;;;;17.13;16.23;;;;;;;;;;5061299;28;20028;-61
2023/04/09 12:31:28;;;;;;;18.02;16.95;;;;;;;;;;5049812;28;20032;-61
2023/04/09 12:33:54;;;;;;;18.02;16.92;;;;;;;;;;5048727;28;20044;-61
2023/04/09 12:36:19;;;;;;;17.80;16.80;;;;;;;;;;5052730;28;20033;-61
2023/04/09 12:38:45;;;;;;;17.73;16.73;;;;;;;;;;5053792;28;20104;-61
2023/04/09 12:41:10;;;;;;;18.95;17.75;;;;;;;;;;5054089;28;20128;-61
2023/04/09 12:43:36;;;;;;;17.63;16.63;;;;;;;;;;5051821;28;20052;-61
2023/04/09 12:46:01;;;;;;;17.95;16.88;;;;;;;;;;5048020;28;20018;-61
2023/04/09 12:48:26;;;;;;;16.88;15.98;;;;;;;;;;5053706;28;20425;-61
2023/04/09 12:50:51;;;;;;;16.58;15.68;;;;;;;;;;5051900;28;20047;-61
2023/04/09 12:53:17;;;;;;;17.85;16.80;;;;;;;;;;5044055;28;20014;-61
2023/04/09 12:55:42;;;;;;;17.52;16.52;;;;;;;;;;5046082;28;20027;-60
2023/04/09 12:58:08;;;;;;;17.20;16.23;;;;;;;;;;5053897;28;20112;-61
2023/04/09 13:00:33;;;;;;;18.38;17.23;;;;;;;;;;5042561;28;20043;-61
2023/04/09 13:02:58;;;;;;;17.65;16.65;;;;;;;;;;5049057;28;20095;-60
2023/04/09 13:05:24;;;;;;;18.02;16.92;;;;;;;;;;5053504;28;20079;-62
2023/04/09 13:07:50;;;;;;;17.35;16.35;;;;;;;;;;5049310;28;20067;-60
2023/04/09 13:10:15;;;;;;;16.60;15.73;;;;;;;;;;5052672;28;20054;-61
2023/04/09 13:12:40;;;;;;;18.80;17.60;;;;;;;;;;5052119;28;20020;-61
2023/04/09 13:15:06;;;;;;;17.60;16.60;;;;;;;;;;5057739;28;20476;-61
2023/04/09 13:17:31;;;;;;;16.83;15.93;;;;;;;;;;5053618;28;20032;-61
2023/04/09 13:19:56;;;;;;;17.23;16.23;;;;;;;;;;5048308;28;20017;-61
2023/04/09 13:22:22;;;;;;;17.58;16.50;;;;;;;;;;5047592;28;20017;-60
2023/04/09 13:24:47;;;;;;;18.30;17.17;;;;;;;;;;5051895;28;20384;-62
2023/04/09 13:27:13;;;;;;;16.65;15.75;;;;;;;;;;5052490;28;20072;-61
2023/04/09 13:29:38;;;;;;;18.05;16.95;;;;;;;;;;5049089;28;20025;-61
2023/04/09 13:32:06;;;;;;;16.98;16.08;;;;;;;;;;5058838;28;20025;-61
2023/04/09 13:34:31;;;;;;;17.15;16.23;;;;;;;;;;5053216;28;20024;-61
2023/04/09 13:36:57;;;;;;;17.95;16.85;;;;;;;;;;5052817;28;20013;-61
2023/04/09 13:39:22;;;;;;;17.55;16.55;;;;;;;;;;5053251;28;20357;-60
2023/04/09 13:41:47;;;;;;;18.05;16.95;;;;;;;;;;5049257;28;20487;-61
2023/04/09 13:44:13;;;;;;;16.60;15.70;;;;;;;;;;5052051;28;20151;-61
2023/04/09 13:46:39;;;;;;;17.17;16.25;;;;;;;;;;5052927;28;20021;-61
2023/04/09 13:49:04;;;;;;;17.60;16.60;;;;;;;;;;5048248;28;20075;-61
2023/04/09 13:51:30;;;;;;;17.05;16.10;;;;;;;;;;5047216;28;20112;-61
2023/04/09 13:53:56;;;;;;;16.92;16.02;;;;;;;;;;5050727;28;20163;-60
2023/04/09 13:56:22;;;;;;;17.70;16.65;;;;;;;;;;5046077;28;20033;-62
2023/04/09 13:58:47;;;;;;;18.83;17.58;;;;;;;;;;5047077;28;20053;-61
2023/04/09 14:01:13;;;;;;;17.00;16.05;;;;;;;;;;5051543;28;20021;-61
2023/04/09 14:03:39;;;;;;;17.80;16.75;;;;;;;;;;5052307;28;20055;-61
2023/04/09 14:06:05;;;;;;;18.13;17.02;;;;;;;;;;5052493;28;20017;-60
2023/04/09 14:08:30;;;;;;;19.13;17.83;;;;;;;;;;5048963;28;20052;-61
2023/04/09 14:10:56;;;;;;;17.15;16.20;;;;;;;;;;5047835;28;20380;-60
2023/04/09 14:13:21;;;;;;;17.08;16.15;;;;;;;;;;5052522;28;20039;-60